createdAt,value
2023-01-21T00:00:58.025Z,8.32
2023-01-21T00:03:24.961Z,8.52
2023-01-21T00:05:51.992Z,8.45
2023-01-21T00:08:18.795Z,8.30
2023-01-21T00:10:45.973Z,8.23
2023-01-21T00:13:12.779Z,8.48
2023-01-21T00:15:39.772Z,7.30
2023-01-21T00:18:07.078Z,7.90
2023-01-21T00:20:34.052Z,8.82
2023-01-21T00:23:00.891Z,7.63
2023-01-21T00:25:27.794Z,7.78
2023-01-21T00:27:54.863Z,8.15
2023-01-21T00:30:21.876Z,7.53
2023-01-21T00:32:48.717Z,7.13
2023-01-21T00:35:16.315Z,7.75
2023-01-21T00:37:43.105Z,6.72
2023-01-21T00:40:10.383Z,8.20
2023-01-21T00:42:37.212Z,7.00
2023-01-21T00:45:04.526Z,6.30
2023-01-21T00:47:31.255Z,5.35
2023-01-21T00:49:58.021Z,5.05
2023-01-21T00:52:24.824Z,4.40
2023-01-21T00:54:51.574Z,4.47
2023-01-21T00:57:18.362Z,4.82
2023-01-21T00:59:45.278Z,4.40
2023-01-21T01:02:12.281Z,3.85
2023-01-21T01:04:39.113Z,4.10
2023-01-21T01:07:06.071Z,4.07
2023-01-21T01:09:33.018Z,3.15
2023-01-21T01:11:59.947Z,3.10
2023-01-21T01:14:26.887Z,3.55
2023-01-21T01:16:53.680Z,3.30
2023-01-21T01:19:20.541Z,3.05
2023-01-21T01:21:47.329Z,3.03
2023-01-21T01:24:14.043Z,2.88
2023-01-21T01:26:42.209Z,2.38
2023-01-21T01:29:13.349Z,2.70
2023-01-21T01:31:40.196Z,2.35
2023-01-21T01:34:07.509Z,2.50
2023-01-21T01:36:34.226Z,2.88
2023-01-21T01:39:01.451Z,2.50
2023-01-21T01:41:30.319Z,2.70
2023-01-21T01:44:04.608Z,2.40
2023-01-21T01:46:34.372Z,2.72
2023-01-21T01:49:07.185Z,2.25
2023-01-21T01:51:58.145Z,2.70
2023-01-21T01:54:48.152Z,2.25
2023-01-21T01:57:17.988Z,2.42
2023-01-21T01:59:46.903Z,2.35
2023-01-21T02:02:17.167Z,2.33
2023-01-21T02:04:51.896Z,2.20
2023-01-21T02:07:21.281Z,2.53
2023-01-21T02:09:48.471Z,2.17
2023-01-21T02:12:18.230Z,2.20
2023-01-21T02:14:45.851Z,2.05
2023-01-21T02:17:27.253Z,2.00
2023-01-21T02:20:31.564Z,2.20
2023-01-21T02:23:20.502Z,2.20
2023-01-21T02:26:18.025Z,2.00
2023-01-21T02:29:07.659Z,2.08
2023-01-21T02:32:08.595Z,2.40
2023-01-21T02:34:56.879Z,2.15
2023-01-21T02:37:28.374Z,1.65
2023-01-21T02:40:19.876Z,1.60
2023-01-21T02:42:54.914Z,1.90
2023-01-21T02:45:49.462Z,1.80
2023-01-21T02:48:21.731Z,1.58
2023-01-21T02:50:53.872Z,2.00
2023-01-21T02:53:25.550Z,1.60
2023-01-21T02:55:52.684Z,1.70
2023-01-21T02:58:27.961Z,2.13
2023-01-21T03:00:54.662Z,1.85
2023-01-21T03:04:01.883Z,1.80
2023-01-21T03:06:34.790Z,1.75
2023-01-21T03:09:18.422Z,1.73
2023-01-21T03:12:09.892Z,1.40
2023-01-21T03:15:03.615Z,1.52
2023-01-21T03:17:53.889Z,2.20
2023-01-21T03:20:31.224Z,2.17
2023-01-21T03:23:05.901Z,2.15
2023-01-21T03:25:35.135Z,2.03
2023-01-21T03:28:06.699Z,1.92
2023-01-21T03:30:35.962Z,1.80
2023-01-21T03:33:04.005Z,1.60
2023-01-21T03:35:35.499Z,2.13
2023-01-21T03:38:08.130Z,1.77
2023-01-21T03:40:50.836Z,1.80
2023-01-21T03:43:17.604Z,1.73
2023-01-21T03:45:58.151Z,2.30
2023-01-21T03:48:48.363Z,2.20
2023-01-21T03:51:24.118Z,1.77
2023-01-21T03:53:59.367Z,2.28
2023-01-21T03:56:27.109Z,1.90
2023-01-21T03:58:54.554Z,1.90
2023-01-21T04:01:21.731Z,1.90
2023-01-21T04:03:48.866Z,2.03
2023-01-21T04:06:17.977Z,1.77
2023-01-21T04:08:45.012Z,1.83
2023-01-21T04:11:12.088Z,2.33
2023-01-21T04:13:39.187Z,1.90
2023-01-21T04:16:06.525Z,1.70
2023-01-21T04:18:33.334Z,1.73
2023-01-21T04:21:00.106Z,1.58
2023-01-21T04:23:27.037Z,1.52
2023-01-21T04:25:53.855Z,1.55
2023-01-21T04:28:20.654Z,2.00
2023-01-21T04:30:48.161Z,1.70
2023-01-21T04:33:15.831Z,1.60
2023-01-21T04:35:42.513Z,1.90
2023-01-21T04:38:09.548Z,2.15
2023-01-21T04:40:36.287Z,1.80
2023-01-21T04:43:02.945Z,1.85
2023-01-21T04:45:29.633Z,1.90
2023-01-21T04:47:56.313Z,2.05
2023-01-21T04:50:22.991Z,1.95
2023-01-21T04:52:49.802Z,1.80
2023-01-21T04:55:16.924Z,1.67
2023-01-21T04:57:43.744Z,1.90
2023-01-21T05:00:10.947Z,2.00
2023-01-21T05:02:37.776Z,1.90
2023-01-21T05:05:04.915Z,2.03
2023-01-21T05:07:31.931Z,2.20
2023-01-21T05:09:58.648Z,2.45
2023-01-21T05:12:25.517Z,2.00
2023-01-21T05:14:57.840Z,1.98
2023-01-21T05:17:24.714Z,1.95
2023-01-21T05:19:52.394Z,2.08
2023-01-21T05:22:19.235Z,2.22
2023-01-21T05:24:45.973Z,1.67
2023-01-21T05:27:12.716Z,2.33
2023-01-21T05:29:40.254Z,2.20
2023-01-21T05:32:06.962Z,1.98
2023-01-21T05:34:33.645Z,1.92
2023-01-21T05:37:00.518Z,1.80
2023-01-21T05:39:27.228Z,1.67
2023-01-21T05:41:54.032Z,1.77
2023-01-21T05:44:20.732Z,2.10
2023-01-21T05:46:47.387Z,1.67
2023-01-21T05:49:14.142Z,2.25
2023-01-21T05:51:41.111Z,2.20
2023-01-21T05:54:07.927Z,2.03
2023-01-21T05:56:34.865Z,1.90
2023-01-21T05:59:01.901Z,2.17
2023-01-21T06:01:28.632Z,2.40
2023-01-21T06:03:55.425Z,2.63
2023-01-21T06:06:22.323Z,2.70
2023-01-21T06:08:49.055Z,2.40
2023-01-21T06:11:15.767Z,2.25
2023-01-21T06:13:42.558Z,2.15
2023-01-21T06:16:09.401Z,2.50
2023-01-21T06:18:36.158Z,2.95
2023-01-21T06:21:02.887Z,2.67
2023-01-21T06:23:29.620Z,2.30
2023-01-21T06:26:02.850Z,2.35
2023-01-21T06:28:30.816Z,1.90
2023-01-21T06:30:57.621Z,2.38
2023-01-21T06:33:24.502Z,2.70
2023-01-21T06:35:51.321Z,2.78
2023-01-21T06:38:18.079Z,3.33
2023-01-21T06:40:44.896Z,3.10
2023-01-21T06:43:11.881Z,3.45
2023-01-21T06:45:38.631Z,3.38
2023-01-21T06:48:05.670Z,3.40
2023-01-21T06:50:32.486Z,3.13
2023-01-21T06:52:59.171Z,2.85
2023-01-21T06:55:26.020Z,2.85
2023-01-21T06:57:52.835Z,3.55
2023-01-21T07:00:20.299Z,3.20
2023-01-21T07:02:47.280Z,3.22
2023-01-21T07:05:15.439Z,3.85
2023-01-21T07:07:42.299Z,3.85
2023-01-21T07:10:09.806Z,3.97
2023-01-21T07:12:36.675Z,3.63
2023-01-21T07:15:03.669Z,4.50
2023-01-21T07:17:30.383Z,4.13
2023-01-21T07:19:57.161Z,3.55
2023-01-21T07:22:24.047Z,3.88
2023-01-21T07:24:50.767Z,3.90
2023-01-21T07:27:17.562Z,5.22
2023-01-21T07:29:44.309Z,4.82
2023-01-21T07:32:10.988Z,4.95
2023-01-21T07:34:37.957Z,5.07
2023-01-21T07:37:04.803Z,5.20
2023-01-21T07:39:31.593Z,4.45
2023-01-21T07:41:58.332Z,5.65
2023-01-21T07:44:25.017Z,4.60
2023-01-21T07:46:52.091Z,5.55
2023-01-21T07:49:18.860Z,4.70
2023-01-21T07:51:46.439Z,5.43
2023-01-21T07:54:14.420Z,5.57
2023-01-21T07:56:41.667Z,6.07
2023-01-21T07:59:10.114Z,6.13
2023-01-21T08:01:36.904Z,5.68
2023-01-21T08:04:03.818Z,5.80
2023-01-21T08:06:30.474Z,5.68
2023-01-21T08:08:57.154Z,5.70
2023-01-21T08:11:23.945Z,5.93
2023-01-21T08:13:50.937Z,6.00
2023-01-21T08:16:17.763Z,5.72
2023-01-21T08:18:44.569Z,5.57
2023-01-21T08:21:11.225Z,6.15
2023-01-21T08:23:38.032Z,6.80
2023-01-21T08:26:06.688Z,7.07
2023-01-21T08:28:34.048Z,6.60
2023-01-21T08:31:09.753Z,7.18
2023-01-21T08:33:36.847Z,6.55
2023-01-21T08:36:06.107Z,6.10
2023-01-21T08:38:34.227Z,7.13
2023-01-21T08:41:00.984Z,6.22
2023-01-21T08:43:27.846Z,7.35
2023-01-21T08:45:59.391Z,7.30
2023-01-21T08:48:26.274Z,7.00
2023-01-21T08:50:53.067Z,7.43
2023-01-21T08:53:20.071Z,7.28
2023-01-21T08:55:46.825Z,6.82
2023-01-21T08:58:13.647Z,7.28
2023-01-21T09:00:41.937Z,8.00
2023-01-21T09:03:08.734Z,7.55
2023-01-21T09:05:35.505Z,7.65
2023-01-21T09:08:02.455Z,7.70
2023-01-21T09:10:55.260Z,7.90
2023-01-21T09:13:22.181Z,7.97
2023-01-21T09:15:48.941Z,7.63
2023-01-21T09:18:15.746Z,8.25
2023-01-21T09:20:42.624Z,7.57
2023-01-21T09:23:25.421Z,7.38
2023-01-21T09:26:03.497Z,7.45
2023-01-21T09:28:31.649Z,7.90
2023-01-21T09:31:02.091Z,8.38
2023-01-21T09:33:30.564Z,7.30
2023-01-21T09:35:59.306Z,8.25
2023-01-21T09:38:27.025Z,7.95
2023-01-21T09:40:57.015Z,7.35
2023-01-21T09:43:34.884Z,8.43
2023-01-21T09:46:07.172Z,7.93
2023-01-21T09:48:41.911Z,7.93
2023-01-21T09:51:20.539Z,8.10
2023-01-21T09:53:54.968Z,7.85
2023-01-21T09:56:32.770Z,6.75
2023-01-21T09:59:22.349Z,7.82
2023-01-21T10:01:49.952Z,7.50
2023-01-21T10:04:48.094Z,7.53
2023-01-21T10:07:27.874Z,7.25
2023-01-21T10:10:08.499Z,8.00
2023-01-21T10:12:44.101Z,7.22
2023-01-21T10:17:54.013Z,8.25
2023-01-21T10:20:43.980Z,8.13
2023-01-21T10:23:25.652Z,8.13
2023-01-21T10:25:52.634Z,7.50
2023-01-21T10:28:30.534Z,7.43
2023-01-21T10:31:07.188Z,7.72
2023-01-21T10:33:34.292Z,7.75
2023-01-21T10:36:06.781Z,7.03
2023-01-21T10:39:16.808Z,7.45
2023-01-21T10:42:00.501Z,7.65
2023-01-21T10:44:58.827Z,6.95
2023-01-21T10:47:37.173Z,7.70
2023-01-21T10:50:32.281Z,7.47
2023-01-21T10:52:58.992Z,7.43
2023-01-21T10:55:51.281Z,7.60
2023-01-21T10:58:28.918Z,7.43
2023-01-21T11:00:58.907Z,7.30
2023-01-21T11:03:41.308Z,6.90
2023-01-21T11:06:12.567Z,7.38
2023-01-21T11:08:41.298Z,7.68
2023-01-21T11:11:09.298Z,7.68
2023-01-21T11:13:36.136Z,7.20
2023-01-21T11:16:04.563Z,7.15
2023-01-21T11:18:33.297Z,8.20
2023-01-21T11:21:16.488Z,8.80
2023-01-21T11:23:57.398Z,8.27
2023-01-21T11:26:33.178Z,7.88
2023-01-21T11:29:17.840Z,8.07
2023-01-21T11:31:48.716Z,7.40
2023-01-21T11:34:20.353Z,8.25
2023-01-21T11:37:07.003Z,7.30
2023-01-21T11:39:38.208Z,7.30
2023-01-21T11:42:15.354Z,7.72
2023-01-21T11:45:06.518Z,7.90
2023-01-21T11:47:50.928Z,7.53
2023-01-21T11:50:37.712Z,6.53
2023-01-21T11:53:07.894Z,5.95
2023-01-21T11:55:56.976Z,7.43
2023-01-21T11:58:32.420Z,5.53
2023-01-21T12:01:01.969Z,1.90
2023-01-21T12:03:37.335Z,1.48
2023-01-21T12:06:06.215Z,1.40
2023-01-21T12:08:36.118Z,1.42
2023-01-21T12:11:05.580Z,1.10
2023-01-21T12:13:37.798Z,0.90
2023-01-21T12:16:29.110Z,0.82
2023-01-21T12:19:16.585Z,1.10
2023-01-21T12:22:05.566Z,2.13
2023-01-21T12:24:59.556Z,1.52
2023-01-21T12:27:53.257Z,0.82
2023-01-21T12:30:35.819Z,1.10
2023-01-21T12:33:12.785Z,0.90
2023-01-21T12:35:46.651Z,1.27
2023-01-21T12:38:18.568Z,1.25
2023-01-21T12:40:54.473Z,1.00
2023-01-21T12:43:24.449Z,0.73
2023-01-21T12:46:03.934Z,1.00
2023-01-21T12:48:53.856Z,0.80
2023-01-21T12:51:25.827Z,0.80
2023-01-21T12:54:01.840Z,0.93
2023-01-21T12:56:57.119Z,0.82
2023-01-21T12:59:47.395Z,1.30
2023-01-21T13:02:32.278Z,1.05
2023-01-21T13:05:02.158Z,1.20
2023-01-21T13:07:34.061Z,1.20
2023-01-21T13:10:13.131Z,1.05
2023-01-21T13:12:40.904Z,1.13
2023-01-21T13:15:33.797Z,0.90
2023-01-21T13:18:05.699Z,1.30
2023-01-21T13:20:38.419Z,0.98
2023-01-21T13:23:26.031Z,1.48
2023-01-21T13:26:30.996Z,1.10
2023-01-21T13:29:18.482Z,1.20
2023-01-21T13:32:13.914Z,1.00
2023-01-21T13:35:07.179Z,1.10
2023-01-21T13:37:48.411Z,1.10
2023-01-21T13:40:44.150Z,1.65
2023-01-21T13:43:21.644Z,1.33
2023-01-21T13:46:12.314Z,1.33
2023-01-21T13:49:03.246Z,1.10
2023-01-21T13:51:42.906Z,1.20
2023-01-21T13:54:34.289Z,1.02
2023-01-21T13:57:11.463Z,0.80
2023-01-21T13:59:41.181Z,1.02
2023-01-21T14:02:26.290Z,1.08
2023-01-21T14:05:17.894Z,1.27
2023-01-21T14:08:11.377Z,1.42
2023-01-21T14:10:52.507Z,1.45
2023-01-21T14:13:41.103Z,1.30
2023-01-21T14:16:16.948Z,1.55
2023-01-21T14:19:05.336Z,1.50
2023-01-21T14:22:02.859Z,1.50
2023-01-21T14:25:01.402Z,1.42
2023-01-21T14:27:49.259Z,1.90
2023-01-21T14:30:20.590Z,1.40
2023-01-21T14:33:08.951Z,1.40
2023-01-21T14:35:47.935Z,1.30
2023-01-21T14:38:23.775Z,1.73
2023-01-21T14:41:02.797Z,1.50
2023-01-21T14:43:32.724Z,1.65
2023-01-21T14:46:23.727Z,2.03
2023-01-21T14:49:00.950Z,1.50
2023-01-21T14:51:30.588Z,1.60
2023-01-21T14:54:02.767Z,1.40
2023-01-21T14:56:33.878Z,1.50
2023-01-21T14:59:26.557Z,1.52
2023-01-21T15:02:01.875Z,1.80
2023-01-21T15:04:40.131Z,1.52
2023-01-21T15:07:17.778Z,1.42
2023-01-21T15:09:50.532Z,1.30
2023-01-21T15:12:27.425Z,1.25
2023-01-21T15:14:59.351Z,1.30
2023-01-21T15:17:53.697Z,1.65
2023-01-21T15:20:44.864Z,1.08
2023-01-21T15:23:17.628Z,1.40
2023-01-21T15:26:09.143Z,1.52
2023-01-21T15:28:59.775Z,1.67
2023-01-21T15:31:26.612Z,1.50
2023-01-21T15:34:03.859Z,1.42
2023-01-21T15:36:34.303Z,1.63
2023-01-21T15:39:10.885Z,1.60
2023-01-21T15:42:02.518Z,1.60
2023-01-21T15:44:49.352Z,1.10
2023-01-21T15:47:38.656Z,1.20
2023-01-21T15:50:14.160Z,1.70
2023-01-21T15:52:57.911Z,1.50
2023-01-21T15:56:02.324Z,1.90
2023-01-21T15:58:59.818Z,1.60
2023-01-21T16:01:40.188Z,1.50
2023-01-21T16:04:21.972Z,1.73
2023-01-21T16:07:14.280Z,1.38
2023-01-21T16:09:59.788Z,1.52
2023-01-21T16:12:50.805Z,1.80
2023-01-21T16:15:59.313Z,1.70
2023-01-21T16:18:26.043Z,1.67
2023-01-21T16:20:56.390Z,1.98
2023-01-21T16:23:26.770Z,1.77
2023-01-21T16:25:54.027Z,1.60
2023-01-21T16:28:21.397Z,1.60
2023-01-21T16:30:57.449Z,2.00
2023-01-21T16:33:24.908Z,1.60
2023-01-21T16:35:56.145Z,2.00
2023-01-21T16:38:26.927Z,1.55
2023-01-21T16:41:08.525Z,1.98
2023-01-21T16:43:47.576Z,2.05
2023-01-21T16:46:17.305Z,1.67
2023-01-21T16:48:48.851Z,1.90
2023-01-21T16:51:22.058Z,1.80
2023-01-21T16:53:49.594Z,1.90
2023-01-21T16:56:28.653Z,1.92
2023-01-21T16:58:56.149Z,1.95
2023-01-21T17:01:26.523Z,2.00
2023-01-21T17:03:53.386Z,2.08
2023-01-21T17:06:25.503Z,1.77
2023-01-21T17:08:58.574Z,2.03
2023-01-21T17:11:25.543Z,2.00
2023-01-21T17:13:52.472Z,2.40
2023-01-21T17:16:28.072Z,2.28
2023-01-21T17:21:33.280Z,2.10
2023-01-21T17:24:07.666Z,1.92
2023-01-21T17:26:43.592Z,2.17
2023-01-21T17:29:19.797Z,1.90
2023-01-21T17:32:04.746Z,2.28
2023-01-21T17:34:34.232Z,2.38
2023-01-21T17:37:01.363Z,2.22
2023-01-21T17:39:46.318Z,1.98
2023-01-21T17:42:24.755Z,2.40
2023-01-21T17:44:55.707Z,2.70
2023-01-21T17:47:26.154Z,2.92
2023-01-21T17:50:05.334Z,2.15
2023-01-21T17:52:32.003Z,1.98
2023-01-21T17:55:29.170Z,2.05
2023-01-21T17:57:56.377Z,2.13
2023-01-21T18:00:31.729Z,1.98
2023-01-21T18:02:58.864Z,2.45
2023-01-21T18:05:25.916Z,2.45
2023-01-21T18:07:52.745Z,1.90
2023-01-21T18:10:25.489Z,2.15
2023-01-21T18:12:54.791Z,2.13
2023-01-21T18:15:21.708Z,1.85
2023-01-21T18:17:53.559Z,2.13
2023-01-21T18:20:23.429Z,1.65
2023-01-21T18:22:51.153Z,1.83
2023-01-21T18:25:19.372Z,1.98
2023-01-21T18:27:51.756Z,1.90
2023-01-21T18:30:24.661Z,2.35
2023-01-21T18:32:52.659Z,2.28
2023-01-21T18:35:28.300Z,2.10
2023-01-21T18:40:23.680Z,2.42
2023-01-21T18:42:53.102Z,2.45
2023-01-21T18:45:22.597Z,3.17
2023-01-21T18:47:50.769Z,2.42
2023-01-21T18:50:36.022Z,2.40
2023-01-21T18:53:02.832Z,2.97
2023-01-21T18:55:29.977Z,3.40
2023-01-21T18:57:57.126Z,3.10
2023-01-21T19:00:32.131Z,2.78
2023-01-21T19:03:01.653Z,2.92
2023-01-21T19:05:34.912Z,3.10
2023-01-21T19:08:02.360Z,3.17
2023-01-21T19:10:29.046Z,2.58
2023-01-21T19:12:56.178Z,2.50
2023-01-21T19:15:27.108Z,3.03
2023-01-21T19:17:54.289Z,3.10
2023-01-21T19:20:26.935Z,2.38
2023-01-21T19:22:54.923Z,2.58
2023-01-21T19:25:23.454Z,2.65
2023-01-21T19:27:52.053Z,2.72
2023-01-21T19:30:23.811Z,2.58
2023-01-21T19:32:52.100Z,2.72
2023-01-21T19:35:31.644Z,2.45
2023-01-21T19:37:58.973Z,2.38
2023-01-21T19:40:27.936Z,2.92
2023-01-21T19:42:54.986Z,2.72
2023-01-21T19:45:24.431Z,2.60
2023-01-21T19:47:51.498Z,2.65
2023-01-21T19:50:24.594Z,2.63
2023-01-21T19:52:52.677Z,2.45
2023-01-21T19:55:22.492Z,2.30
2023-01-21T19:57:56.726Z,2.20
2023-01-21T20:00:29.202Z,2.60
2023-01-21T20:02:55.996Z,3.22
2023-01-21T20:05:23.578Z,2.90
2023-01-21T20:07:51.207Z,3.40
2023-01-21T20:10:26.037Z,3.13
2023-01-21T20:12:53.415Z,3.20
2023-01-21T20:15:27.540Z,3.97
2023-01-21T20:17:56.298Z,4.30
2023-01-21T20:20:26.358Z,4.60
2023-01-21T20:22:53.377Z,4.97
2023-01-21T20:25:22.743Z,4.55
2023-01-21T20:27:56.604Z,4.50
2023-01-21T20:30:29.512Z,4.53
2023-01-21T20:32:56.829Z,4.72
2023-01-21T20:35:27.054Z,4.63
2023-01-21T20:37:55.915Z,5.22
2023-01-21T20:40:30.619Z,5.47
2023-01-21T20:42:57.770Z,5.37
2023-01-21T20:45:32.035Z,5.40
2023-01-21T20:48:02.072Z,5.32
2023-01-21T20:50:33.537Z,5.82
2023-01-21T20:53:00.320Z,5.53
2023-01-21T20:55:28.968Z,6.03
2023-01-21T20:57:56.445Z,6.15
2023-01-21T21:00:24.393Z,6.80
2023-01-21T21:02:51.158Z,7.25
2023-01-21T21:05:18.968Z,7.28
2023-01-21T21:07:46.066Z,7.50
2023-01-21T21:10:25.787Z,8.35
2023-01-21T21:12:52.987Z,8.20
2023-01-21T21:15:20.477Z,8.05
2023-01-21T21:17:48.054Z,8.20
2023-01-21T21:20:21.356Z,8.27
2023-01-21T21:22:48.028Z,8.68
2023-01-21T21:25:19.835Z,9.15
2023-01-21T21:27:47.107Z,8.52
2023-01-21T21:30:26.519Z,8.50
2023-01-21T21:32:55.136Z,7.90
2023-01-21T21:35:26.831Z,8.45
2023-01-21T21:37:55.119Z,9.25
2023-01-21T21:40:23.890Z,8.90
2023-01-21T21:43:09.833Z,8.95
2023-01-21T21:45:37.531Z,9.23
2023-01-21T21:48:23.348Z,8.73
2023-01-21T21:50:57.180Z,9.07
2023-01-21T21:53:24.025Z,8.85
2023-01-21T21:55:50.793Z,9.25
2023-01-21T21:58:17.487Z,8.70
2023-01-21T22:00:44.742Z,10.25
2023-01-21T22:03:12.664Z,9.93
2023-01-21T22:05:39.359Z,8.73
2023-01-21T22:08:07.033Z,9.05
2023-01-21T22:10:34.076Z,9.40
2023-01-21T22:13:00.765Z,9.25
2023-01-21T22:15:27.485Z,9.23
2023-01-21T22:17:55.281Z,9.48
2023-01-21T22:20:22.002Z,9.40
2023-01-21T22:22:49.060Z,9.73
2023-01-21T22:25:16.515Z,9.73
2023-01-21T22:27:44.535Z,9.43
2023-01-21T22:30:12.480Z,9.98
2023-01-21T22:32:39.185Z,10.20
2023-01-21T22:35:06.334Z,10.50
2023-01-21T22:37:32.986Z,10.90
2023-01-21T22:39:59.877Z,10.02
2023-01-21T22:42:26.534Z,11.70
2023-01-21T22:44:53.280Z,11.20
2023-01-21T22:47:20.090Z,11.45
2023-01-21T22:49:49.206Z,11.43
2023-01-21T22:52:15.922Z,11.75
2023-01-21T22:54:42.697Z,10.48
2023-01-21T22:57:09.461Z,12.60
2023-01-21T22:59:36.331Z,12.48
2023-01-21T23:02:03.098Z,11.27
2023-01-21T23:04:29.790Z,11.13
2023-01-21T23:06:56.610Z,11.23
2023-01-21T23:09:23.475Z,11.25
2023-01-21T23:11:52.565Z,11.93
2023-01-21T23:14:19.857Z,11.27
2023-01-21T23:16:47.072Z,12.10
2023-01-21T23:19:14.046Z,12.18
2023-01-21T23:21:40.883Z,12.38
2023-01-21T23:24:08.113Z,12.00
2023-01-21T23:26:35.275Z,12.02
2023-01-21T23:29:02.217Z,12.82
2023-01-21T23:31:29.123Z,12.65
2023-01-21T23:33:57.213Z,11.43
2023-01-21T23:36:24.020Z,12.25
2023-01-21T23:38:50.951Z,11.43
2023-01-21T23:41:19.773Z,11.57
2023-01-21T23:43:46.678Z,12.32
2023-01-21T23:46:16.609Z,12.35
2023-01-21T23:48:43.611Z,12.50
2023-01-21T23:51:13.852Z,12.93
2023-01-21T23:53:40.622Z,12.25
2023-01-21T23:56:12.152Z,12.35
2023-01-21T23:58:39.225Z,12.45
